sensor_id;sensor_type;location;lat;lon;timestamp;temperature;humidity
28715;DHT22;15886;49.170;14.572;2023-01-09T11:50:30;9.20;95.80
28715;DHT22;15886;49.170;14.572;2023-01-09T11:53:18;9.10;96.90
28715;DHT22;15886;49.170;14.572;2023-01-09T11:56:22;9.10;97.00
28715;DHT22;15886;49.170;14.572;2023-01-09T11:58:43;9.10;97.10
28715;DHT22;15886;49.170;14.572;2023-01-09T12:06:54;9.10;97.40
28715;DHT22;15886;49.170;14.572;2023-01-09T12:09:50;9.00;97.20
28715;DHT22;15886;49.170;14.572;2023-01-09T12:13:03;8.90;97.60
28715;DHT22;15886;49.170;14.572;2023-01-09T12:15:41;8.90;98.00
28715;DHT22;15886;49.170;14.572;2023-01-09T12:18:27;9.00;97.60
28715;DHT22;15886;49.170;14.572;2023-01-09T12:29:34;9.00;97.40
28715;DHT22;15886;49.170;14.572;2023-01-09T12:32:44;9.00;97.20
28715;DHT22;15886;49.170;14.572;2023-01-09T12:55:02;8.70;95.80
28715;DHT22;15886;49.170;14.572;2023-01-09T12:57:39;8.70;96.00
28715;DHT22;15886;49.170;14.572;2023-01-09T13:00:17;8.70;95.90
28715;DHT22;15886;49.170;14.572;2023-01-09T13:02:54;8.60;95.50
28715;DHT22;15886;49.170;14.572;2023-01-09T13:05:51;8.70;95.80
28715;DHT22;15886;49.170;14.572;2023-01-09T13:08:39;8.60;95.70
28715;DHT22;15886;49.170;14.572;2023-01-09T13:11:46;8.70;95.80
28715;DHT22;15886;49.170;14.572;2023-01-09T13:16:45;8.70;95.50
28715;DHT22;15886;49.170;14.572;2023-01-09T13:19:44;8.80;95.30
28715;DHT22;15886;49.170;14.572;2023-01-09T13:22:13;8.80;95.20
28715;DHT22;15886;49.170;14.572;2023-01-09T13:27:18;8.60;94.10
28715;DHT22;15886;49.170;14.572;2023-01-09T13:29:51;8.70;94.40
28715;DHT22;15886;49.170;14.572;2023-01-09T13:35:12;8.70;94.10
28715;DHT22;15886;49.170;14.572;2023-01-09T13:37:41;8.60;94.10
28715;DHT22;15886;49.170;14.572;2023-01-09T13:43:00;8.60;94.00
28715;DHT22;15886;49.170;14.572;2023-01-09T13:45:32;8.60;93.90
28715;DHT22;15886;49.170;14.572;2023-01-09T13:50:45;8.60;93.90
28715;DHT22;15886;49.170;14.572;2023-01-09T13:56:05;8.50;93.70
28715;DHT22;15886;49.170;14.572;2023-01-09T14:06:41;8.60;93.70
28715;DHT22;15886;49.170;14.572;2023-01-09T14:09:21;8.60;93.30
28715;DHT22;15886;49.170;14.572;2023-01-09T14:12:02;8.70;93.50
28715;DHT22;15886;49.170;14.572;2023-01-09T14:14:33;8.80;93.50
28715;DHT22;15886;49.170;14.572;2023-01-09T14:17:15;8.70;93.00
28715;DHT22;15886;49.170;14.572;2023-01-09T14:19:44;8.70;93.10
28715;DHT22;15886;49.170;14.572;2023-01-09T14:22:32;8.80;93.10
28715;DHT22;15886;49.170;14.572;2023-01-09T14:25:18;8.90;92.70
28715;DHT22;15886;49.170;14.572;2023-01-09T14:30:38;9.00;92.70
28715;DHT22;15886;49.170;14.572;2023-01-09T14:38:47;9.30;92.20
28715;DHT22;15886;49.170;14.572;2023-01-09T14:41:25;9.30;92.10
28715;DHT22;15886;49.170;14.572;2023-01-09T14:47:06;9.30;92.10
28715;DHT22;15886;49.170;14.572;2023-01-09T14:49:44;9.30;92.20
28715;DHT22;15886;49.170;14.572;2023-01-09T14:52:49;9.30;92.20
28715;DHT22;15886;49.170;14.572;2023-01-09T14:55:25;9.20;92.00
28715;DHT22;15886;49.170;14.572;2023-01-09T14:57:54;9.10;92.00
28715;DHT22;15886;49.170;14.572;2023-01-09T15:00:23;9.10;92.10
28715;DHT22;15886;49.170;14.572;2023-01-09T15:02:52;9.10;91.90
28715;DHT22;15886;49.170;14.572;2023-01-09T15:05:22;9.00;92.40
28715;DHT22;15886;49.170;14.572;2023-01-09T15:10:22;8.90;92.70
28715;DHT22;15886;49.170;14.572;2023-01-09T15:12:53;8.90;92.70
28715;DHT22;15886;49.170;14.572;2023-01-09T15:15:22;8.90;92.60
28715;DHT22;15886;49.170;14.572;2023-01-09T15:18:06;8.80;92.60
28715;DHT22;15886;49.170;14.572;2023-01-09T15:20:35;8.70;92.80
28715;DHT22;15886;49.170;14.572;2023-01-09T15:23:03;8.70;93.00
28715;DHT22;15886;49.170;14.572;2023-01-09T15:25:34;8.70;93.00
28715;DHT22;15886;49.170;14.572;2023-01-09T15:28:27;8.70;93.00
28715;DHT22;15886;49.170;14.572;2023-01-09T15:31:13;8.70;92.80
28715;DHT22;15886;49.170;14.572;2023-01-09T15:33:58;8.70;93.00
28715;DHT22;15886;49.170;14.572;2023-01-09T15:36:29;8.60;93.20
28715;DHT22;15886;49.170;14.572;2023-01-09T15:38:58;8.60;93.30
28715;DHT22;15886;49.170;14.572;2023-01-09T15:41:29;8.60;93.20
28715;DHT22;15886;49.170;14.572;2023-01-09T15:44:25;8.60;93.40
28715;DHT22;15886;49.170;14.572;2023-01-09T15:46:58;8.50;93.40
28715;DHT22;15886;49.170;14.572;2023-01-09T15:49:29;8.60;93.20
28715;DHT22;15886;49.170;14.572;2023-01-09T15:51:59;8.60;93.20
28715;DHT22;15886;49.170;14.572;2023-01-09T15:54:29;8.60;93.20
28715;DHT22;15886;49.170;14.572;2023-01-09T15:59:52;8.50;93.20
28715;DHT22;15886;49.170;14.572;2023-01-09T16:02:22;8.50;93.10
28715;DHT22;15886;49.170;14.572;2023-01-09T16:05:14;8.50;93.30
28715;DHT22;15886;49.170;14.572;2023-01-09T16:07:48;8.50;93.00
28715;DHT22;15886;49.170;14.572;2023-01-09T16:10:32;8.50;93.10
28715;DHT22;15886;49.170;14.572;2023-01-09T16:13:00;8.60;93.00
28715;DHT22;15886;49.170;14.572;2023-01-09T16:15:32;8.70;92.90
28715;DHT22;15886;49.170;14.572;2023-01-09T16:18:18;8.70;92.60
28715;DHT22;15886;49.170;14.572;2023-01-09T16:21:23;8.70;92.60
28715;DHT22;15886;49.170;14.572;2023-01-09T16:26:41;8.80;92.60
28715;DHT22;15886;49.170;14.572;2023-01-09T16:29:34;8.90;92.40
28715;DHT22;15886;49.170;14.572;2023-01-09T16:32:05;8.90;92.00
28715;DHT22;15886;49.170;14.572;2023-01-09T16:34:34;8.90;92.00
28715;DHT22;15886;49.170;14.572;2023-01-09T16:37:04;9.00;92.00
28715;DHT22;15886;49.170;14.572;2023-01-09T16:39:32;9.00;91.90
28715;DHT22;15886;49.170;14.572;2023-01-09T16:42:00;9.10;92.00
28715;DHT22;15886;49.170;14.572;2023-01-09T16:44:47;9.00;91.80
28715;DHT22;15886;49.170;14.572;2023-01-09T16:47:15;9.00;91.90
28715;DHT22;15886;49.170;14.572;2023-01-09T16:49:43;9.00;92.00
28715;DHT22;15886;49.170;14.572;2023-01-09T16:52:16;9.00;91.80
28715;DHT22;15886;49.170;14.572;2023-01-09T16:54:43;8.90;91.90
28715;DHT22;15886;49.170;14.572;2023-01-09T16:57:16;8.90;91.90
28715;DHT22;15886;49.170;14.572;2023-01-09T16:59:45;8.90;91.50
28715;DHT22;15886;49.170;14.572;2023-01-09T17:02:18;8.90;91.50
28715;DHT22;15886;49.170;14.572;2023-01-09T17:05:15;9.00;91.30
28715;DHT22;15886;49.170;14.572;2023-01-09T17:07:43;9.10;91.20
28715;DHT22;15886;49.170;14.572;2023-01-09T17:10:18;9.10;90.80
28715;DHT22;15886;49.170;14.572;2023-01-09T17:12:48;9.00;90.50
28715;DHT22;15886;49.170;14.572;2023-01-09T17:15:16;9.00;90.60
28715;DHT22;15886;49.170;14.572;2023-01-09T17:17:44;8.80;91.00
28715;DHT22;15886;49.170;14.572;2023-01-09T17:20:14;8.70;91.40
28715;DHT22;15886;49.170;14.572;2023-01-09T17:22:43;8.70;91.40
28715;DHT22;15886;49.170;14.572;2023-01-09T17:25:15;8.60;91.60
28715;DHT22;15886;49.170;14.572;2023-01-09T17:28:02;8.50;91.80
28715;DHT22;15886;49.170;14.572;2023-01-09T17:30:50;8.40;92.00
28715;DHT22;15886;49.170;14.572;2023-01-09T17:33:18;8.40;92.00
28715;DHT22;15886;49.170;14.572;2023-01-09T17:35:47;8.50;91.80
28715;DHT22;15886;49.170;14.572;2023-01-09T17:38:15;8.40;92.10
28715;DHT22;15886;49.170;14.572;2023-01-09T17:40:44;8.40;91.80
28715;DHT22;15886;49.170;14.572;2023-01-09T17:43:13;8.40;91.50
28715;DHT22;15886;49.170;14.572;2023-01-09T17:45:44;8.40;91.40
28715;DHT22;15886;49.170;14.572;2023-01-09T17:48:17;8.40;91.50
28715;DHT22;15886;49.170;14.572;2023-01-09T17:50:47;8.40;91.40
28715;DHT22;15886;49.170;14.572;2023-01-09T17:53:20;8.30;91.50
28715;DHT22;15886;49.170;14.572;2023-01-09T17:55:58;8.30;91.60
28715;DHT22;15886;49.170;14.572;2023-01-09T17:58:30;8.30;91.70
28715;DHT22;15886;49.170;14.572;2023-01-09T18:00:59;8.20;92.10
28715;DHT22;15886;49.170;14.572;2023-01-09T18:03:27;8.20;92.20
28715;DHT22;15886;49.170;14.572;2023-01-09T18:06:00;8.20;92.40
28715;DHT22;15886;49.170;14.572;2023-01-09T18:08:30;8.20;92.50
28715;DHT22;15886;49.170;14.572;2023-01-09T18:11:03;8.20;92.70
28715;DHT22;15886;49.170;14.572;2023-01-09T18:13:31;8.10;92.60
28715;DHT22;15886;49.170;14.572;2023-01-09T18:16:00;8.10;92.70
28715;DHT22;15886;49.170;14.572;2023-01-09T18:18:29;8.20;92.70
28715;DHT22;15886;49.170;14.572;2023-01-09T18:20:57;8.20;92.60
28715;DHT22;15886;49.170;14.572;2023-01-09T18:23:25;8.20;92.60
28715;DHT22;15886;49.170;14.572;2023-01-09T18:25:53;8.20;92.60
28715;DHT22;15886;49.170;14.572;2023-01-09T18:28:21;8.20;92.60
28715;DHT22;15886;49.170;14.572;2023-01-09T18:30:50;8.20;92.50
28715;DHT22;15886;49.170;14.572;2023-01-09T18:33:19;8.10;92.50
28715;DHT22;15886;49.170;14.572;2023-01-09T18:35:47;8.20;92.40
28715;DHT22;15886;49.170;14.572;2023-01-09T18:38:21;8.10;92.50
28715;DHT22;15886;49.170;14.572;2023-01-09T18:40:56;8.10;92.60
28715;DHT22;15886;49.170;14.572;2023-01-09T18:43:27;8.00;92.50
28715;DHT22;15886;49.170;14.572;2023-01-09T18:46:09;8.10;92.60
28715;DHT22;15886;49.170;14.572;2023-01-09T18:48:41;8.00;92.50
28715;DHT22;15886;49.170;14.572;2023-01-09T18:51:09;8.00;92.60
28715;DHT22;15886;49.170;14.572;2023-01-09T18:53:37;8.00;92.50
28715;DHT22;15886;49.170;14.572;2023-01-09T18:56:08;8.10;92.50
28715;DHT22;15886;49.170;14.572;2023-01-09T18:58:48;8.00;92.40
28715;DHT22;15886;49.170;14.572;2023-01-09T19:01:17;8.00;92.50
28715;DHT22;15886;49.170;14.572;2023-01-09T19:04:03;8.00;92.50
28715;DHT22;15886;49.170;14.572;2023-01-09T19:06:33;8.10;92.30
28715;DHT22;15886;49.170;14.572;2023-01-09T19:09:02;8.10;92.30
28715;DHT22;15886;49.170;14.572;2023-01-09T19:11:41;8.20;92.20
28715;DHT22;15886;49.170;14.572;2023-01-09T19:14:14;8.20;92.00
28715;DHT22;15886;49.170;14.572;2023-01-09T19:16:49;8.20;92.00
28715;DHT22;15886;49.170;14.572;2023-01-09T19:19:24;8.30;92.00
28715;DHT22;15886;49.170;14.572;2023-01-09T19:21:53;8.30;92.00
28715;DHT22;15886;49.170;14.572;2023-01-09T19:24:22;8.30;91.80
28715;DHT22;15886;49.170;14.572;2023-01-09T19:26:55;8.30;91.80
28715;DHT22;15886;49.170;14.572;2023-01-09T19:29:23;8.30;91.80
28715;DHT22;15886;49.170;14.572;2023-01-09T19:31:53;8.40;91.80
28715;DHT22;15886;49.170;14.572;2023-01-09T19:34:21;8.40;91.80
28715;DHT22;15886;49.170;14.572;2023-01-09T19:36:50;8.50;91.70
28715;DHT22;15886;49.170;14.572;2023-01-09T19:39:18;8.60;91.70
28715;DHT22;15886;49.170;14.572;2023-01-09T19:42:13;8.70;91.40
28715;DHT22;15886;49.170;14.572;2023-01-09T19:44:43;8.70;91.20
28715;DHT22;15886;49.170;14.572;2023-01-09T19:47:12;8.70;91.10
28715;DHT22;15886;49.170;14.572;2023-01-09T19:49:49;8.80;91.00
28715;DHT22;15886;49.170;14.572;2023-01-09T19:52:31;8.80;90.80
28715;DHT22;15886;49.170;14.572;2023-01-09T19:55:01;8.90;90.70
28715;DHT22;15886;49.170;14.572;2023-01-09T19:57:34;8.90;90.50
28715;DHT22;15886;49.170;14.572;2023-01-09T20:00:26;8.80;90.60
28715;DHT22;15886;49.170;14.572;2023-01-09T20:03:09;8.80;90.70
28715;DHT22;15886;49.170;14.572;2023-01-09T20:05:52;8.70;90.60
28715;DHT22;15886;49.170;14.572;2023-01-09T20:08:22;8.70;90.80
28715;DHT22;15886;49.170;14.572;2023-01-09T20:10:51;8.70;90.90
28715;DHT22;15886;49.170;14.572;2023-01-09T20:13:27;8.60;91.10
28715;DHT22;15886;49.170;14.572;2023-01-09T20:15:57;8.60;91.10
28715;DHT22;15886;49.170;14.572;2023-01-09T20:18:30;8.50;91.10
28715;DHT22;15886;49.170;14.572;2023-01-09T20:21:01;8.50;91.30
28715;DHT22;15886;49.170;14.572;2023-01-09T20:23:30;8.40;91.30
28715;DHT22;15886;49.170;14.572;2023-01-09T20:26:04;8.40;91.20
28715;DHT22;15886;49.170;14.572;2023-01-09T20:28:32;8.40;91.40
28715;DHT22;15886;49.170;14.572;2023-01-09T20:31:14;8.30;91.60
28715;DHT22;15886;49.170;14.572;2023-01-09T20:33:43;8.10;91.90
28715;DHT22;15886;49.170;14.572;2023-01-09T20:36:12;8.00;92.00
28715;DHT22;15886;49.170;14.572;2023-01-09T20:38:41;8.10;92.10
28715;DHT22;15886;49.170;14.572;2023-01-09T20:41:14;8.10;92.50
28715;DHT22;15886;49.170;14.572;2023-01-09T20:43:54;8.10;92.10
28715;DHT22;15886;49.170;14.572;2023-01-09T20:46:25;8.10;92.30
28715;DHT22;15886;49.170;14.572;2023-01-09T20:48:55;8.10;92.20
28715;DHT22;15886;49.170;14.572;2023-01-09T20:51:24;8.10;92.20
28715;DHT22;15886;49.170;14.572;2023-01-09T20:53:52;8.10;92.10
28715;DHT22;15886;49.170;14.572;2023-01-09T20:56:29;8.10;91.80
28715;DHT22;15886;49.170;14.572;2023-01-09T20:58:58;8.10;92.00
28715;DHT22;15886;49.170;14.572;2023-01-09T21:01:27;8.10;92.00
28715;DHT22;15886;49.170;14.572;2023-01-09T21:03:55;8.10;91.90
28715;DHT22;15886;49.170;14.572;2023-01-09T21:06:24;8.10;92.00
28715;DHT22;15886;49.170;14.572;2023-01-09T21:08:53;8.00;92.00
28715;DHT22;15886;49.170;14.572;2023-01-09T21:11:21;8.00;92.10
28715;DHT22;15886;49.170;14.572;2023-01-09T21:13:50;8.10;91.90
28715;DHT22;15886;49.170;14.572;2023-01-09T21:16:20;8.10;91.60
28715;DHT22;15886;49.170;14.572;2023-01-09T21:18:52;8.10;91.60
28715;DHT22;15886;49.170;14.572;2023-01-09T21:21:23;8.20;91.60
28715;DHT22;15886;49.170;14.572;2023-01-09T21:23:56;8.10;91.80
28715;DHT22;15886;49.170;14.572;2023-01-09T21:26:27;8.00;91.90
28715;DHT22;15886;49.170;14.572;2023-01-09T21:28:59;8.10;91.80
28715;DHT22;15886;49.170;14.572;2023-01-09T21:31:30;8.10;91.80
28715;DHT22;15886;49.170;14.572;2023-01-09T21:34:05;8.00;91.80
28715;DHT22;15886;49.170;14.572;2023-01-09T21:36:34;8.10;91.90
28715;DHT22;15886;49.170;14.572;2023-01-09T21:39:04;8.10;92.00
28715;DHT22;15886;49.170;14.572;2023-01-09T21:41:34;8.20;91.70
28715;DHT22;15886;49.170;14.572;2023-01-09T21:44:21;8.20;91.70
28715;DHT22;15886;49.170;14.572;2023-01-09T21:47:07;8.30;91.50
28715;DHT22;15886;49.170;14.572;2023-01-09T21:49:41;8.40;91.30
28715;DHT22;15886;49.170;14.572;2023-01-09T21:52:10;8.30;91.20
28715;DHT22;15886;49.170;14.572;2023-01-09T21:54:42;8.20;91.60
28715;DHT22;15886;49.170;14.572;2023-01-09T21:57:09;8.20;91.70
28715;DHT22;15886;49.170;14.572;2023-01-09T21:59:37;8.10;91.80
28715;DHT22;15886;49.170;14.572;2023-01-09T22:02:08;8.00;92.00
28715;DHT22;15886;49.170;14.572;2023-01-09T22:04:37;8.00;92.20
28715;DHT22;15886;49.170;14.572;2023-01-09T22:07:05;8.00;92.10
28715;DHT22;15886;49.170;14.572;2023-01-09T22:09:33;8.10;92.10
28715;DHT22;15886;49.170;14.572;2023-01-09T22:12:01;8.10;92.20
28715;DHT22;15886;49.170;14.572;2023-01-09T22:14:29;8.00;92.20
28715;DHT22;15886;49.170;14.572;2023-01-09T22:16:57;8.00;92.30
28715;DHT22;15886;49.170;14.572;2023-01-09T22:19:25;8.00;92.70
28715;DHT22;15886;49.170;14.572;2023-01-09T22:21:54;7.90;92.40
28715;DHT22;15886;49.170;14.572;2023-01-09T22:24:22;7.70;92.60
28715;DHT22;15886;49.170;14.572;2023-01-09T22:26:50;7.60;92.90
28715;DHT22;15886;49.170;14.572;2023-01-09T22:29:18;7.60;93.00
28715;DHT22;15886;49.170;14.572;2023-01-09T22:31:46;7.60;93.20
28715;DHT22;15886;49.170;14.572;2023-01-09T22:34:16;7.60;93.10
28715;DHT22;15886;49.170;14.572;2023-01-09T22:36:45;7.60;93.30
28715;DHT22;15886;49.170;14.572;2023-01-09T22:39:16;7.60;93.40
28715;DHT22;15886;49.170;14.572;2023-01-09T22:41:44;7.60;93.40
28715;DHT22;15886;49.170;14.572;2023-01-09T22:44:16;7.60;93.40
28715;DHT22;15886;49.170;14.572;2023-01-09T22:46:44;7.50;93.40
28715;DHT22;15886;49.170;14.572;2023-01-09T22:49:12;7.50;93.60
28715;DHT22;15886;49.170;14.572;2023-01-09T22:51:40;7.50;93.40
28715;DHT22;15886;49.170;14.572;2023-01-09T22:54:08;7.60;93.50
28715;DHT22;15886;49.170;14.572;2023-01-09T22:56:36;7.70;93.40
28715;DHT22;15886;49.170;14.572;2023-01-09T22:59:04;7.60;93.30
28715;DHT22;15886;49.170;14.572;2023-01-09T23:01:32;7.60;93.40
28715;DHT22;15886;49.170;14.572;2023-01-09T23:04:00;7.50;93.50
28715;DHT22;15886;49.170;14.572;2023-01-09T23:06:30;7.50;93.60
28715;DHT22;15886;49.170;14.572;2023-01-09T23:08:58;7.50;93.60
28715;DHT22;15886;49.170;14.572;2023-01-09T23:11:28;7.40;93.70
28715;DHT22;15886;49.170;14.572;2023-01-09T23:14:15;7.30;93.90
28715;DHT22;15886;49.170;14.572;2023-01-09T23:16:44;7.40;94.00
28715;DHT22;15886;49.170;14.572;2023-01-09T23:19:12;7.30;94.20
28715;DHT22;15886;49.170;14.572;2023-01-09T23:21:43;7.30;94.30
28715;DHT22;15886;49.170;14.572;2023-01-09T23:24:13;7.30;94.50
28715;DHT22;15886;49.170;14.572;2023-01-09T23:26:42;7.20;94.50
28715;DHT22;15886;49.170;14.572;2023-01-09T23:29:11;7.30;94.60
28715;DHT22;15886;49.170;14.572;2023-01-09T23:31:39;7.20;94.90
28715;DHT22;15886;49.170;14.572;2023-01-09T23:34:11;7.20;94.90
28715;DHT22;15886;49.170;14.572;2023-01-09T23:36:40;7.20;95.10
28715;DHT22;15886;49.170;14.572;2023-01-09T23:39:08;7.20;94.90
28715;DHT22;15886;49.170;14.572;2023-01-09T23:41:36;7.40;94.60
28715;DHT22;15886;49.170;14.572;2023-01-09T23:44:23;7.40;94.50
28715;DHT22;15886;49.170;14.572;2023-01-09T23:46:51;7.50;94.30
28715;DHT22;15886;49.170;14.572;2023-01-09T23:49:20;7.50;94.40
28715;DHT22;15886;49.170;14.572;2023-01-09T23:51:48;7.60;94.30
28715;DHT22;15886;49.170;14.572;2023-01-09T23:54:15;7.50;94.40
28715;DHT22;15886;49.170;14.572;2023-01-09T23:56:43;7.50;94.40
28715;DHT22;15886;49.170;14.572;2023-01-09T23:59:12;7.40;94.60
